createdAt,value
2022-10-02T00:04:55.297Z,8.20
2022-10-02T00:10:02.825Z,8.60
2022-10-02T00:15:15.709Z,9.80
2022-10-02T00:20:24.875Z,8.70
2022-10-02T00:25:31.232Z,10.00
2022-10-02T00:30:53.802Z,10.40
2022-10-02T00:36:05.976Z,9.90
2022-10-02T00:41:37.714Z,10.30
2022-10-02T00:47:04.584Z,11.40
2022-10-02T00:52:37.040Z,10.50
2022-10-02T00:58:00.834Z,10.90
2022-10-02T01:03:20.194Z,9.90
2022-10-02T01:08:23.356Z,11.20
2022-10-02T01:13:27.389Z,11.60
2022-10-02T01:18:31.433Z,11.70
2022-10-02T01:23:55.328Z,12.60
2022-10-02T01:28:58.622Z,11.60
2022-10-02T01:34:02.398Z,12.30
2022-10-02T01:39:05.728Z,12.10
2022-10-02T01:44:09.205Z,12.90
2022-10-02T01:49:27.633Z,13.10
2022-10-02T01:54:49.326Z,11.60
2022-10-02T01:59:58.766Z,12.70
2022-10-02T02:05:16.766Z,11.80
2022-10-02T02:10:38.725Z,11.80
2022-10-02T02:16:07.851Z,12.20
2022-10-02T02:21:29.604Z,11.40
2022-10-02T02:26:33.761Z,11.50
2022-10-02T02:31:41.818Z,11.10
2022-10-02T02:36:49.576Z,11.00
2022-10-02T02:41:59.512Z,11.50
2022-10-02T02:47:12.985Z,10.50
2022-10-02T02:52:27.781Z,11.20
2022-10-02T02:57:40.803Z,10.60
2022-10-02T03:02:43.927Z,10.60
2022-10-02T03:07:50.818Z,10.90
2022-10-02T03:13:03.298Z,10.80
2022-10-02T03:18:18.008Z,10.50
2022-10-02T03:23:55.426Z,8.80
2022-10-02T03:29:03.482Z,9.70
2022-10-02T03:34:07.037Z,9.70
2022-10-02T03:39:24.628Z,9.60
2022-10-02T03:44:29.148Z,10.30
2022-10-02T03:49:32.402Z,11.10
2022-10-02T03:54:36.498Z,9.30
2022-10-02T03:59:49.146Z,10.70
2022-10-02T04:05:23.382Z,9.90
2022-10-02T04:10:37.011Z,10.00
2022-10-02T04:16:10.136Z,8.30
2022-10-02T04:21:24.219Z,9.10
2022-10-02T04:26:33.591Z,9.10
2022-10-02T04:31:37.357Z,9.60
2022-10-02T04:36:55.778Z,10.30
2022-10-02T04:42:35.306Z,8.90
2022-10-02T04:48:19.133Z,8.50
2022-10-02T04:53:52.162Z,7.60
2022-10-02T04:59:32.010Z,7.30
2022-10-02T05:05:02.352Z,8.10
2022-10-02T05:10:17.171Z,6.50
2022-10-02T05:15:36.451Z,7.50
2022-10-02T05:20:57.771Z,6.90
2022-10-02T05:26:24.785Z,6.50
2022-10-02T05:32:03.318Z,5.70
2022-10-02T05:37:34.401Z,6.40
2022-10-02T05:42:46.213Z,5.20
2022-10-02T05:47:51.110Z,5.40
2022-10-02T05:53:10.710Z,6.10
2022-10-02T05:58:24.482Z,5.20
2022-10-02T06:04:06.341Z,4.40
2022-10-02T06:09:20.131Z,4.00
2022-10-02T06:14:34.520Z,3.60
2022-10-02T06:19:52.523Z,2.90
2022-10-02T06:25:01.647Z,2.50
2022-10-02T06:30:08.843Z,2.80
2022-10-02T06:35:16.113Z,2.60
2022-10-02T06:40:46.173Z,2.50
2022-10-02T06:45:53.539Z,2.50
2022-10-02T06:50:56.611Z,2.60
2022-10-02T06:56:34.094Z,2.20
2022-10-02T07:01:43.395Z,1.90
2022-10-02T07:07:09.715Z,2.00
2022-10-02T07:13:03.196Z,1.90
2022-10-02T07:18:25.217Z,1.70
2022-10-02T07:24:02.581Z,1.50
2022-10-02T07:29:41.862Z,2.00
2022-10-02T07:35:04.627Z,1.90
2022-10-02T07:40:25.915Z,2.10
2022-10-02T07:45:43.788Z,1.90
2022-10-02T07:50:46.890Z,2.20
2022-10-02T07:55:55.076Z,2.40
2022-10-02T08:01:06.347Z,2.80
2022-10-02T08:06:10.506Z,2.60
2022-10-02T08:11:39.550Z,4.00
2022-10-02T08:16:52.277Z,3.60
2022-10-02T08:22:03.437Z,3.10
2022-10-02T08:27:13.401Z,3.60
2022-10-02T08:32:16.548Z,3.50
2022-10-02T08:37:40.809Z,4.60
2022-10-02T08:43:18.214Z,3.50
2022-10-02T08:49:00.513Z,3.40
2022-10-02T08:54:35.306Z,4.00
2022-10-02T08:59:57.097Z,3.50
2022-10-02T09:05:21.383Z,3.70
2022-10-02T09:11:02.357Z,4.80
2022-10-02T09:16:19.325Z,3.90
2022-10-02T09:21:56.533Z,4.10
2022-10-02T09:27:08.345Z,4.60
2022-10-02T09:32:49.461Z,3.70
2022-10-02T09:38:30.453Z,3.20
2022-10-02T09:43:44.072Z,3.40
2022-10-02T09:48:50.461Z,3.10
2022-10-02T09:54:11.942Z,3.00
2022-10-02T09:59:58.647Z,2.90
2022-10-02T10:05:10.790Z,3.50
2022-10-02T10:10:45.137Z,4.00
2022-10-02T10:15:54.214Z,3.20
2022-10-02T10:21:30.376Z,3.10
2022-10-02T10:26:49.640Z,2.50
2022-10-02T10:32:26.553Z,2.70
2022-10-02T10:37:51.288Z,2.80
2022-10-02T10:43:19.920Z,2.40
2022-10-02T10:48:49.571Z,2.30
2022-10-02T10:54:05.206Z,2.00
2022-10-02T10:59:12.633Z,2.90
2022-10-02T11:04:53.907Z,2.40
2022-10-02T11:10:28.807Z,1.70
2022-10-02T11:16:06.885Z,1.50
2022-10-02T11:21:12.897Z,1.70
2022-10-02T11:26:32.681Z,1.90
2022-10-02T11:31:54.590Z,1.60
2022-10-02T11:37:25.215Z,1.60
2022-10-02T11:42:55.085Z,1.90
2022-10-02T11:48:20.142Z,1.90
2022-10-02T11:53:34.741Z,1.70
2022-10-02T11:59:07.988Z,1.30
2022-10-02T12:04:23.242Z,1.80
2022-10-02T12:09:57.778Z,1.30
2022-10-02T12:15:17.402Z,1.60
2022-10-02T12:20:51.362Z,1.10
2022-10-02T12:26:37.095Z,2.00
2022-10-02T12:31:52.524Z,1.40
2022-10-02T12:37:31.933Z,1.70
2022-10-02T12:43:00.524Z,1.80
2022-10-02T12:48:28.571Z,2.70
2022-10-02T12:54:08.960Z,2.40
2022-10-02T12:59:36.639Z,2.20
2022-10-02T13:05:06.775Z,1.60
2022-10-02T13:10:26.052Z,1.70
2022-10-02T13:16:03.726Z,1.40
2022-10-02T13:21:16.856Z,1.30
2022-10-02T13:26:30.761Z,1.90
2022-10-02T13:31:58.115Z,1.90
2022-10-02T13:37:19.867Z,2.30
2022-10-02T13:42:33.184Z,2.60
2022-10-02T13:47:40.866Z,2.10
2022-10-02T13:53:13.294Z,2.50
2022-10-02T13:58:54.819Z,1.20
2022-10-02T14:04:23.695Z,1.30
2022-10-02T14:09:53.240Z,1.30
2022-10-02T14:15:04.147Z,1.10
2022-10-02T14:20:35.170Z,1.40
2022-10-02T14:25:45.886Z,1.60
2022-10-02T14:31:01.060Z,1.90
2022-10-02T14:36:36.696Z,2.00
2022-10-02T14:42:06.199Z,2.20
2022-10-02T14:47:24.477Z,1.90
2022-10-02T14:52:36.365Z,0.60
2022-10-02T14:58:02.766Z,1.10
2022-10-02T15:03:38.865Z,1.20
2022-10-02T15:09:06.245Z,2.20
2022-10-02T15:14:18.765Z,2.30
2022-10-02T15:19:49.112Z,2.80
2022-10-02T15:24:59.837Z,2.90
2022-10-02T15:30:27.055Z,2.70
2022-10-02T15:36:05.869Z,3.20
2022-10-02T15:41:43.057Z,3.50
2022-10-02T15:47:12.261Z,4.00
2022-10-02T15:52:15.317Z,4.60
2022-10-02T15:57:31.236Z,8.40
2022-10-02T16:02:58.118Z,9.70
2022-10-02T16:08:33.126Z,9.00
2022-10-02T16:14:00.307Z,7.70
2022-10-02T16:19:30.325Z,5.60
2022-10-02T16:24:48.470Z,6.70
2022-10-02T16:30:13.643Z,4.70
2022-10-02T16:35:24.454Z,4.00
2022-10-02T16:40:58.390Z,4.00
2022-10-02T16:46:07.436Z,2.70
2022-10-02T16:51:50.355Z,3.40
2022-10-02T16:57:04.314Z,4.30
2022-10-02T17:02:18.069Z,3.20
2022-10-02T17:07:30.138Z,2.70
2022-10-02T17:12:58.577Z,3.00
2022-10-02T17:18:10.522Z,4.00
2022-10-02T17:23:40.086Z,4.10
2022-10-02T17:28:52.272Z,4.70
2022-10-02T17:33:58.106Z,3.40
2022-10-02T17:39:26.102Z,3.90
2022-10-02T17:44:56.988Z,3.90
2022-10-02T17:50:24.069Z,4.10
2022-10-02T17:56:04.580Z,4.50
2022-10-02T18:01:13.782Z,5.00
2022-10-02T18:06:32.888Z,3.40
2022-10-02T18:12:14.299Z,6.00
2022-10-02T18:17:48.542Z,5.90
2022-10-02T18:23:14.028Z,5.10
2022-10-02T18:28:36.127Z,4.40
2022-10-02T18:33:45.794Z,4.70
2022-10-02T18:39:00.547Z,4.80
2022-10-02T18:44:21.035Z,5.20
2022-10-02T18:49:38.196Z,4.40
2022-10-02T18:55:09.065Z,3.90
2022-10-02T19:00:39.433Z,4.20
2022-10-02T19:05:55.148Z,3.80
2022-10-02T19:10:58.481Z,4.10
2022-10-02T19:16:26.734Z,3.80
2022-10-02T19:21:29.923Z,3.50
2022-10-02T19:26:36.959Z,4.20
2022-10-02T19:31:41.769Z,4.20
2022-10-02T19:36:52.675Z,3.70
2022-10-02T19:41:59.729Z,4.40
2022-10-02T19:47:22.693Z,4.30
2022-10-02T19:52:30.626Z,5.00
2022-10-02T19:57:40.596Z,5.30
2022-10-02T20:02:49.589Z,5.40
2022-10-02T20:07:57.537Z,4.80
2022-10-02T20:13:24.037Z,4.90
2022-10-02T20:18:27.998Z,4.30
2022-10-02T20:23:36.552Z,4.60
2022-10-02T20:28:50.220Z,4.80
2022-10-02T20:33:58.904Z,4.50
2022-10-02T20:39:11.963Z,4.40
2022-10-02T20:44:15.222Z,4.60
2022-10-02T20:50:00.201Z,4.50
2022-10-02T20:55:30.507Z,4.30
2022-10-02T21:01:11.456Z,5.10
2022-10-02T21:06:37.944Z,5.20
2022-10-02T21:11:54.748Z,5.10
2022-10-02T21:17:35.629Z,5.20
2022-10-02T21:23:16.384Z,4.60
2022-10-02T21:28:19.507Z,4.30
2022-10-02T21:33:31.060Z,3.70
2022-10-02T21:38:34.111Z,4.80
2022-10-02T21:44:08.111Z,4.10
2022-10-02T21:49:33.071Z,3.50
2022-10-02T21:54:42.077Z,4.10
2022-10-02T22:00:13.230Z,3.20
2022-10-02T22:05:54.236Z,3.40
2022-10-02T22:11:00.560Z,2.40
2022-10-02T22:16:12.109Z,2.50
2022-10-02T22:21:32.556Z,2.60
2022-10-02T22:27:22.702Z,2.30
2022-10-02T22:32:53.436Z,2.70
2022-10-02T22:38:07.720Z,2.00
2022-10-02T22:43:21.672Z,2.20
2022-10-02T22:48:38.248Z,2.40
2022-10-02T22:53:52.184Z,2.10
2022-10-02T22:59:06.821Z,2.30
2022-10-02T23:04:33.004Z,2.30
2022-10-02T23:10:01.993Z,2.00
2022-10-02T23:15:42.607Z,2.30
2022-10-02T23:21:02.757Z,1.90
2022-10-02T23:26:39.796Z,2.10
2022-10-02T23:32:14.346Z,1.50
2022-10-02T23:37:38.913Z,2.00
2022-10-02T23:42:59.322Z,1.30
2022-10-02T23:48:11.940Z,1.40
2022-10-02T23:53:45.276Z,1.60
2022-10-02T23:59:13.308Z,1.60
